Wind From: 11-12-2017 12:03 Until: 12-12-2017 06:00 warning for: Wind Level: Orange info button

Power and phone distribution networks may be disrupted for relatively long periods., Roofs and chimneys can be damaged. , Tree branches may break. , Vehicles can be deported. , Traffic may be disrupted, particularly on secondary roads in forest areas. Limit your trips. , Limit your speed in highway driving, especially if you drive a vehicle or hitch sensitive to wind. , Do not go for walks in forests or along the coast., In town, be vigilant against possible falling objects., Do not work on roofs and do not touch any electrical line fallen on the ground., Store or secure sensitive objects to wind or likely to be damaged., Always install power generators outside buildings. 


Meteo18 Weather Cam more information Meteo18 Weather Cam


Thunder radar more information blitzortung!


Rain radar more information rain snow radar


Visit our other weather sites:

Template documentation
and downloads

And another site



Weather Underground History page Text

Daily Summary for March 19, 2016 Units:  Metric    English   Both
« Previous Day
Next Day »
Daily Weekly Monthly Yearly Custom
  High: Low: Average:
Temperature: 11.7 °C 0.9 °C 5.1 °C
Dew Point: 6.6 °C -0.3 °C 2.8 °C
Humidity: 95 % 67 % 85 %
Wind Speed: 24.1 km/h 0.0 km/h 4.5 km/h
Wind Gust: 24.1 km/h - -
Wind:- - ENE
Pressure: 1019.9 hPa 1017.2 hPa -
Precipitation: 0.0 mm    
Historical Graphs
 
 
Tabular Data for March 19, 2016
Time Temperature Dew Point Pressure Wind Wind Speed Wind Gust Humidity Rainfall Rate (Hourly)
00:02 4.9 °C 2.6 °C 1019.5 hPa NE 4.8 km/h 11.3 km/h 85 % 0.0 mm
00:07 4.7 °C 2.4 °C 1019.5 hPa NE 3.2 km/h 11.3 km/h 85 % 0.0 mm
00:12 4.5 °C 2.4 °C 1019.2 hPa ENE 4.8 km/h 11.3 km/h 86 % 0.0 mm
00:17 4.5 °C 2.4 °C 1019.2 hPa ENE 1.6 km/h 11.3 km/h 86 % 0.0 mm
00:22 4.7 °C 2.6 °C 1019.2 hPa NE 1.6 km/h 6.4 km/h 86 % 0.0 mm
00:27 4.7 °C 2.6 °C 1019.2 hPa NE 1.6 km/h 8.0 km/h 86 % 0.0 mm
00:32 4.7 °C 2.6 °C 1019.2 hPa SE 3.2 km/h 8.0 km/h 86 % 0.0 mm
00:37 4.7 °C 2.6 °C 1019.2 hPa NE 3.2 km/h 8.0 km/h 86 % 0.0 mm
00:42 4.7 °C 2.6 °C 1019.2 hPa East 1.6 km/h 8.0 km/h 86 % 0.0 mm
00:47 4.8 °C 2.7 °C 1019.2 hPa NNE 4.8 km/h 9.7 km/h 86 % 0.0 mm
00:57 4.6 °C 2.5 °C 1019.2 hPa ENE 3.2 km/h 8.0 km/h 86 % 0.0 mm
01:02 4.4 °C 2.4 °C 1019.2 hPa NE 1.6 km/h 8.0 km/h 87 % 0.0 mm
01:12 4.4 °C 2.4 °C 1019.2 hPa East 1.6 km/h 4.8 km/h 87 % 0.0 mm
01:17 4.3 °C 2.3 °C 1019.2 hPa Calm   4.8 km/h 87 % 0.0 mm
01:22 4.3 °C 2.3 °C 1019.2 hPa ENE 3.2 km/h 4.8 km/h 87 % 0.0 mm
01:27 4.3 °C 2.3 °C 1019.2 hPa NE 3.2 km/h 4.8 km/h 87 % 0.0 mm
01:32 4.3 °C 2.3 °C 1019.2 hPa East 1.6 km/h 6.4 km/h 87 % 0.0 mm
01:37 4.2 °C 2.2 °C 1019.2 hPa NE 4.8 km/h 6.4 km/h 87 % 0.0 mm
01:42 4.4 °C 2.6 °C 1019.2 hPa East 1.6 km/h 8.0 km/h 88 % 0.0 mm
01:47 4.4 °C 2.4 °C 1019.2 hPa Calm   8.0 km/h 87 % 0.0 mm
01:57 4.2 °C 2.2 °C 1019.2 hPa NE 4.8 km/h 8.0 km/h 87 % 0.0 mm
02:02 4.0 °C 2.0 °C 1018.8 hPa ENE 4.8 km/h 8.0 km/h 87 % 0.0 mm
02:07 3.7 °C 1.9 °C 1018.8 hPa East 3.2 km/h 8.0 km/h 88 % 0.0 mm
02:12 3.4 °C 1.8 °C 1018.8 hPa NE 4.8 km/h 9.7 km/h 89 % 0.0 mm
02:17 3.5 °C 2.0 °C 1018.8 hPa East 1.6 km/h 11.3 km/h 90 % 0.0 mm
02:27 3.8 °C 2.2 °C 1018.8 hPa East 3.2 km/h 11.3 km/h 89 % 0.0 mm
02:32 3.8 °C 2.2 °C 1018.8 hPa NE 3.2 km/h 11.3 km/h 89 % 0.0 mm
02:37 3.7 °C 2.1 °C 1018.8 hPa NE 4.8 km/h 9.7 km/h 89 % 0.0 mm
02:42 3.6 °C 2.0 °C 1018.8 hPa ENE 1.6 km/h 8.0 km/h 89 % 0.0 mm
02:47 3.6 °C 1.8 °C 1018.8 hPa ENE 1.6 km/h 8.0 km/h 88 % 0.0 mm
02:52 3.5 °C 1.9 °C 1018.8 hPa NE 3.2 km/h 6.4 km/h 89 % 0.0 mm
02:57 3.4 °C 1.6 °C 1018.5 hPa East 1.6 km/h 6.4 km/h 88 % 0.0 mm
03:07 3.1 °C 1.5 °C 1018.5 hPa Calm   6.4 km/h 89 % 0.0 mm
03:17 2.6 °C 1.1 °C 1018.5 hPa Calm   6.4 km/h 90 % 0.0 mm
03:27 2.9 °C 1.9 °C 1018.5 hPa ENE 3.2 km/h 8.0 km/h 93 % 0.0 mm
03:32 3.2 °C 2.0 °C 1018.5 hPa NE 3.2 km/h 12.9 km/h 92 % 0.0 mm
03:42 3.4 °C 1.9 °C 1018.5 hPa ENE 1.6 km/h 12.9 km/h 90 % 0.0 mm
03:47 3.1 °C 1.6 °C 1018.5 hPa East 6.4 km/h 12.9 km/h 90 % 0.0 mm
03:52 3.1 °C 1.6 °C 1018.5 hPa NNE 3.2 km/h 12.9 km/h 90 % 0.0 mm
04:02 3.0 °C 1.5 °C 1018.5 hPa NE 3.2 km/h 11.3 km/h 90 % 0.0 mm
04:12 3.0 °C 1.5 °C 1018.5 hPa SE 1.6 km/h 11.3 km/h 90 % 0.0 mm
04:17 2.9 °C 1.4 °C 1018.5 hPa NE 3.2 km/h 11.3 km/h 90 % 0.0 mm
04:22 2.8 °C 1.3 °C 1018.5 hPa ENE 1.6 km/h 11.3 km/h 90 % 0.0 mm
04:32 2.7 °C 1.4 °C 1018.5 hPa NE 3.2 km/h 6.4 km/h 91 % 0.0 mm
04:37 2.6 °C 1.3 °C 1018.5 hPa Calm   6.4 km/h 91 % 0.0 mm
04:42 2.4 °C 1.1 °C 1018.5 hPa ENE 4.8 km/h 8.0 km/h 91 % 0.0 mm
04:47 2.4 °C 1.2 °C 1018.5 hPa ENE 4.8 km/h 9.7 km/h 92 % 0.0 mm
04:52 2.4 °C 1.2 °C 1018.5 hPa ENE 8.0 km/h 9.7 km/h 92 % 0.0 mm
04:57 2.4 °C 1.2 °C 1018.5 hPa NE 4.8 km/h 12.9 km/h 92 % 0.0 mm
05:02 2.3 °C 1.1 °C 1018.5 hPa Calm   12.9 km/h 92 % 0.0 mm
05:12 2.2 °C 1.0 °C 1018.8 hPa East 1.6 km/h 12.9 km/h 92 % 0.0 mm
05:17 2.1 °C 0.9 °C 1018.5 hPa SE 1.6 km/h 12.9 km/h 92 % 0.0 mm
05:22 2.1 °C 0.9 °C 1018.5 hPa SE 1.6 km/h 12.9 km/h 92 % 0.0 mm
05:27 2.1 °C 0.9 °C 1018.5 hPa ESE 1.6 km/h 12.9 km/h 92 % 0.0 mm
05:37 2.1 °C 0.9 °C 1018.5 hPa South 4.8 km/h 11.3 km/h 92 % 0.0 mm
05:42 1.9 °C 0.7 °C 1018.5 hPa SSE 4.8 km/h 11.3 km/h 92 % 0.0 mm
05:52 1.8 °C 0.6 °C 1018.5 hPa ENE 1.6 km/h 11.3 km/h 92 % 0.0 mm
05:57 1.8 °C 0.6 °C 1018.5 hPa East 1.6 km/h 12.9 km/h 92 % 0.0 mm
06:02 1.7 °C 0.7 °C 1018.5 hPa East 3.2 km/h 11.3 km/h 93 % 0.0 mm
06:12 1.7 °C 0.7 °C 1018.5 hPa East 1.6 km/h 11.3 km/h 93 % 0.0 mm
06:17 1.6 °C 0.4 °C 1018.5 hPa NE 3.2 km/h 11.3 km/h 92 % 0.0 mm
06:22 1.4 °C 0.2 °C 1018.5 hPa Calm   11.3 km/h 92 % 0.0 mm
06:27 1.3 °C 0.3 °C 1018.5 hPa ESE 1.6 km/h 9.7 km/h 93 % 0.0 mm
06:32 1.4 °C 0.4 °C 1018.5 hPa SE 6.4 km/h 9.7 km/h 93 % 0.0 mm
06:37 1.4 °C 0.2 °C 1018.5 hPa Calm   12.9 km/h 92 % 0.0 mm
06:42 1.2 °C 0.0 °C 1018.5 hPa Calm   12.9 km/h 92 % 0.0 mm
06:47 0.9 °C -0.3 °C 1018.8 hPa Calm   9.7 km/h 92 % 0.0 mm
06:52 0.9 °C -0.1 °C 1018.8 hPa East 1.6 km/h 9.7 km/h 93 % 0.0 mm
06:57 1.1 °C 0.2 °C 1018.8 hPa East 1.6 km/h 8.0 km/h 94 % 0.0 mm
07:02 1.2 °C 0.3 °C 1018.8 hPa NE 4.8 km/h 8.0 km/h 94 % 0.0 mm
07:12 1.3 °C 0.4 °C 1018.8 hPa East 3.2 km/h 11.3 km/h 94 % 0.0 mm
07:22 1.4 °C 0.4 °C 1018.8 hPa East 4.8 km/h 14.5 km/h 93 % 0.0 mm
07:27 1.4 °C 0.4 °C 1018.8 hPa NE 1.6 km/h 14.5 km/h 93 % 0.0 mm
07:32 1.3 °C 0.3 °C 1018.8 hPa NE 3.2 km/h 14.5 km/h 93 % 0.0 mm
07:42 1.3 °C 0.3 °C 1019.2 hPa ENE 4.8 km/h 12.9 km/h 93 % 0.0 mm
07:47 1.3 °C 0.4 °C 1019.2 hPa Calm   12.9 km/h 94 % 0.0 mm
07:52 1.3 °C 0.4 °C 1019.2 hPa ENE 8.0 km/h 12.9 km/h 94 % 0.0 mm
07:57 1.3 °C 0.4 °C 1019.2 hPa North 1.6 km/h 12.9 km/h 94 % 0.0 mm
08:02 1.3 °C 0.6 °C 1019.2 hPa NE 6.4 km/h 12.9 km/h 95 % 0.0 mm
08:07 1.4 °C 0.7 °C 1019.2 hPa ENE 1.6 km/h 12.9 km/h 95 % 0.0 mm
08:12 1.6 °C 0.9 °C 1019.2 hPa NE 6.4 km/h 12.9 km/h 95 % 0.0 mm
08:17 1.6 °C 0.9 °C 1019.2 hPa East 12.9 km/h 12.9 km/h 95 % 0.0 mm
08:22 1.6 °C 0.9 °C 1019.2 hPa NNE 9.7 km/h 12.9 km/h 95 % 0.0 mm
08:27 1.7 °C 1.0 °C 1019.5 hPa East 8.0 km/h 20.9 km/h 95 % 0.0 mm
08:32 1.7 °C 1.0 °C 1019.2 hPa ESE 3.2 km/h 20.9 km/h 95 % 0.0 mm
08:37 1.7 °C 1.0 °C 1019.5 hPa NNE 4.8 km/h 17.7 km/h 95 % 0.0 mm
08:42 1.8 °C 1.1 °C 1019.5 hPa NNE 4.8 km/h 17.7 km/h 95 % 0.0 mm
08:47 1.9 °C 1.2 °C 1019.5 hPa SE 3.2 km/h 22.5 km/h 95 % 0.0 mm
08:52 1.9 °C 1.2 °C 1019.5 hPa NE 8.0 km/h 22.5 km/h 95 % 0.0 mm
08:57 1.9 °C 1.2 °C 1019.5 hPa ENE 8.0 km/h 19.3 km/h 95 % 0.0 mm
09:02 1.9 °C 1.2 °C 1019.5 hPa SE 8.0 km/h 19.3 km/h 95 % 0.0 mm
09:07 2.0 °C 1.3 °C 1019.5 hPa ENE 1.6 km/h 24.1 km/h 95 % 0.0 mm
09:12 2.1 °C 1.4 °C 1019.5 hPa ENE 4.8 km/h 24.1 km/h 95 % 0.0 mm
09:17 2.1 °C 1.4 °C 1019.5 hPa ENE 3.2 km/h 19.3 km/h 95 % 0.0 mm
09:22 2.2 °C 1.5 °C 1019.5 hPa ENE 4.8 km/h 19.3 km/h 95 % 0.0 mm
09:32 2.3 °C 1.6 °C 1019.9 hPa ESE 6.4 km/h 16.1 km/h 95 % 0.0 mm
09:37 2.4 °C 1.7 °C 1019.9 hPa NE 3.2 km/h 16.1 km/h 95 % 0.0 mm
09:42 2.5 °C 1.8 °C 1019.9 hPa NE 24.1 km/h 24.1 km/h 95 % 0.0 mm
09:47 2.4 °C 1.5 °C 1019.9 hPa ESE 3.2 km/h 24.1 km/h 94 % 0.0 mm
09:52 2.4 °C 1.5 °C 1019.9 hPa SSE 8.0 km/h 24.1 km/h 94 % 0.0 mm
09:57 2.4 °C 1.5 °C 1019.9 hPa NE 1.6 km/h 24.1 km/h 94 % 0.0 mm
10:02 2.6 °C 1.7 °C 1019.9 hPa NNE 4.8 km/h 19.3 km/h 94 % 0.0 mm
10:12 2.8 °C 1.9 °C 1019.9 hPa North 6.4 km/h 16.1 km/h 94 % 0.0 mm
10:17 2.8 °C 1.9 °C 1019.9 hPa NE 3.2 km/h 16.1 km/h 94 % 0.0 mm
10:22 2.9 °C 2.0 °C 1019.9 hPa ENE 9.7 km/h 16.1 km/h 94 % 0.0 mm
10:27 3.0 °C 2.0 °C 1019.9 hPa ENE 1.6 km/h 16.1 km/h 93 % 0.0 mm
10:32 3.1 °C 2.1 °C 1019.9 hPa East 8.0 km/h 16.1 km/h 93 % 0.0 mm
10:37 3.3 °C 2.3 °C 1019.9 hPa NE 3.2 km/h 14.5 km/h 93 % 0.0 mm
10:47 3.6 °C 2.4 °C 1019.9 hPa NNE 8.0 km/h 14.5 km/h 92 % 0.0 mm
10:52 3.6 °C 2.3 °C 1019.9 hPa NNE 12.9 km/h 16.1 km/h 91 % 0.0 mm
10:57 3.6 °C 2.3 °C 1019.9 hPa NE 3.2 km/h 16.1 km/h 91 % 0.0 mm
11:02 3.8 °C 2.6 °C 1019.9 hPa ENE 4.8 km/h 16.1 km/h 92 % 0.0 mm
11:12 3.8 °C 2.3 °C 1019.9 hPa NE 6.4 km/h 19.3 km/h 90 % 0.0 mm
11:17 3.8 °C 2.3 °C 1019.9 hPa ENE 6.4 km/h 19.3 km/h 90 % 0.0 mm
11:22 3.9 °C 2.6 °C 1019.9 hPa NE 11.3 km/h 19.3 km/h 91 % 0.0 mm
11:27 4.1 °C 2.6 °C 1019.9 hPa ENE 11.3 km/h 16.1 km/h 90 % 0.0 mm
11:32 4.2 °C 2.7 °C 1019.9 hPa East 3.2 km/h 16.1 km/h 90 % 0.0 mm
11:37 4.6 °C 3.3 °C 1019.9 hPa NNE 1.6 km/h 16.1 km/h 91 % 0.0 mm
11:42 5.1 °C 3.6 °C 1019.9 hPa ENE 1.6 km/h 16.1 km/h 90 % 0.0 mm
11:47 5.5 °C 3.5 °C 1019.9 hPa NNE 3.2 km/h 14.5 km/h 87 % 0.0 mm
11:52 5.7 °C 3.5 °C 1019.9 hPa SE 3.2 km/h 12.9 km/h 86 % 0.0 mm
11:57 6.1 °C 3.9 °C 1019.5 hPa NNE 4.8 km/h 12.9 km/h 86 % 0.0 mm
12:07 6.1 °C 3.6 °C 1019.5 hPa NE 3.2 km/h 17.7 km/h 84 % 0.0 mm
12:12 6.2 °C 3.9 °C 1019.5 hPa East 4.8 km/h 17.7 km/h 85 % 0.0 mm
12:17 6.5 °C 4.2 °C 1019.5 hPa SSE 1.6 km/h 17.7 km/h 85 % 0.0 mm
12:22 6.9 °C 4.0 °C 1019.5 hPa NE 8.0 km/h 14.5 km/h 82 % 0.0 mm
12:27 6.9 °C 3.9 °C 1019.5 hPa ENE 6.4 km/h 14.5 km/h 81 % 0.0 mm
12:32 7.2 °C 4.3 °C 1019.5 hPa NNE 6.4 km/h 14.5 km/h 82 % 0.0 mm
12:37 7.5 °C 4.6 °C 1019.5 hPa East 6.4 km/h 14.5 km/h 82 % 0.0 mm
12:42 7.6 °C 4.5 °C 1019.5 hPa NE 6.4 km/h 16.1 km/h 81 % 0.0 mm
12:47 7.7 °C 4.8 °C 1019.5 hPa SSE 9.7 km/h 17.7 km/h 82 % 0.0 mm
12:52 7.8 °C 4.9 °C 1019.2 hPa East 4.8 km/h 17.7 km/h 82 % 0.0 mm
12:57 7.9 °C 5.0 °C 1019.2 hPa NNE 11.3 km/h 17.7 km/h 82 % 0.0 mm
13:02 8.1 °C 4.9 °C 1019.2 hPa East 6.4 km/h 20.9 km/h 80 % 0.0 mm
13:12 8.3 °C 4.5 °C 1019.2 hPa NE 3.2 km/h 17.7 km/h 77 % 0.0 mm
13:17 8.6 °C 5.5 °C 1019.2 hPa NE 6.4 km/h 14.5 km/h 81 % 0.0 mm
13:22 8.8 °C 5.4 °C 1018.8 hPa East 3.2 km/h 17.7 km/h 79 % 0.0 mm
13:27 8.9 °C 5.1 °C 1018.8 hPa East 4.8 km/h 17.7 km/h 77 % 0.0 mm
13:32 9.1 °C 5.1 °C 1018.8 hPa East 1.6 km/h 17.7 km/h 76 % 0.0 mm
13:37 9.4 °C 5.2 °C 1018.8 hPa NE 6.4 km/h 14.5 km/h 75 % 0.0 mm
13:42 9.6 °C 5.4 °C 1018.8 hPa NNE 12.9 km/h 14.5 km/h 75 % 0.0 mm
13:47 9.7 °C 5.3 °C 1018.8 hPa East 4.8 km/h 16.1 km/h 74 % 0.0 mm
13:52 9.9 °C 5.5 °C 1018.8 hPa NE 6.4 km/h 16.1 km/h 74 % 0.0 mm
13:57 10.1 °C 5.5 °C 1018.8 hPa NE 8.0 km/h 16.1 km/h 73 % 0.0 mm
14:02 10.2 °C 5.6 °C 1018.8 hPa ENE 4.8 km/h 11.3 km/h 73 % 0.0 mm
14:12 10.4 °C 6.4 °C 1018.5 hPa SSW 3.2 km/h 17.7 km/h 76 % 0.0 mm
14:17 10.6 °C 6.0 °C 1018.5 hPa East 3.2 km/h 17.7 km/h 73 % 0.0 mm
14:22 10.6 °C 5.8 °C 1018.5 hPa ESE 4.8 km/h 17.7 km/h 72 % 0.0 mm
14:27 10.7 °C 5.7 °C 1018.5 hPa NE 8.0 km/h 17.7 km/h 71 % 0.0 mm
14:32 10.8 °C 5.5 °C 1018.5 hPa ENE 6.4 km/h 16.1 km/h 70 % 0.0 mm
14:37 10.8 °C 5.5 °C 1018.2 hPa NE 9.7 km/h 16.1 km/h 70 % 0.0 mm
14:42 10.9 °C 6.1 °C 1018.5 hPa NNE 1.6 km/h 16.1 km/h 72 % 0.0 mm
14:52 11.1 °C 5.4 °C 1018.5 hPa NNE 3.2 km/h 12.9 km/h 68 % 0.0 mm
14:57 11.1 °C 5.6 °C 1018.2 hPa NNE 6.4 km/h 12.9 km/h 69 % 0.0 mm
15:02 11.2 °C 5.7 °C 1018.2 hPa ENE 6.4 km/h 16.1 km/h 69 % 0.0 mm
15:07 11.3 °C 5.6 °C 1018.2 hPa NE 4.8 km/h 16.1 km/h 68 % 0.0 mm
15:12 11.3 °C 5.4 °C 1018.2 hPa NE 11.3 km/h 16.1 km/h 67 % 0.0 mm
15:17 11.5 °C 5.6 °C 1018.2 hPa NNW 3.2 km/h 16.1 km/h 67 % 0.0 mm
15:22 11.4 °C 5.5 °C 1018.2 hPa East 1.6 km/h 16.1 km/h 67 % 0.0 mm
15:27 11.5 °C 5.6 °C 1018.2 hPa NNE 11.3 km/h 16.1 km/h 67 % 0.0 mm
15:32 11.6 °C 6.1 °C 1017.8 hPa SSW 4.8 km/h 16.1 km/h 69 % 0.0 mm
15:37 11.7 °C 6.2 °C 1017.8 hPa ENE 9.7 km/h 19.3 km/h 69 % 0.0 mm
15:42 11.6 °C 5.9 °C 1017.8 hPa NNE 14.5 km/h 19.3 km/h 68 % 0.0 mm
15:47 11.6 °C 6.3 °C 1017.8 hPa NE 8.0 km/h 17.7 km/h 70 % 0.0 mm
15:52 11.6 °C 6.1 °C 1017.8 hPa ENE 6.4 km/h 20.9 km/h 69 % 0.0 mm
15:57 11.7 °C 6.0 °C 1017.5 hPa ENE 9.7 km/h 20.9 km/h 68 % 0.0 mm
16:02 11.6 °C 6.1 °C 1017.5 hPa ENE 11.3 km/h 20.9 km/h 69 % 0.0 mm
16:12 11.6 °C 5.9 °C 1017.5 hPa NNE 4.8 km/h 22.5 km/h 68 % 0.0 mm
16:17 11.7 °C 6.6 °C 1017.5 hPa SSE 6.4 km/h 22.5 km/h 71 % 0.0 mm
16:22 11.6 °C 6.3 °C 1017.5 hPa ESE 4.8 km/h 17.7 km/h 70 % 0.0 mm
16:32 11.3 °C 6.0 °C 1017.2 hPa NE 8.0 km/h 16.1 km/h 70 % 0.0 mm
16:37 11.2 °C 5.9 °C 1017.2 hPa ENE 6.4 km/h 20.9 km/h 70 % 0.0 mm
16:42 11.2 °C 6.1 °C 1017.5 hPa ENE 1.6 km/h 20.9 km/h 71 % 0.0 mm
16:47 11.2 °C 5.9 °C 1017.5 hPa East 4.8 km/h 20.9 km/h 70 % 0.0 mm
16:52 11.1 °C 5.8 °C 1017.5 hPa NE 8.0 km/h 20.9 km/h 70 % 0.0 mm
16:57 10.9 °C 5.4 °C 1017.5 hPa East 3.2 km/h 17.7 km/h 69 % 0.0 mm
17:02 10.9 °C 5.6 °C 1017.5 hPa NE 4.8 km/h 20.9 km/h 70 % 0.0 mm
17:12 10.7 °C 5.2 °C 1017.5 hPa NNE 8.0 km/h 17.7 km/h 69 % 0.0 mm
17:17 10.5 °C 5.3 °C 1017.5 hPa SSW 3.2 km/h 17.7 km/h 70 % 0.0 mm
17:22 10.4 °C 5.2 °C 1017.2 hPa NE 9.7 km/h 17.7 km/h 70 % 0.0 mm
17:27 10.2 °C 5.2 °C 1017.2 hPa NNE 4.8 km/h 17.7 km/h 71 % 0.0 mm
17:32 10.1 °C 5.1 °C 1017.2 hPa ENE 3.2 km/h 17.7 km/h 71 % 0.0 mm
17:37 9.9 °C 5.1 °C 1017.2 hPa ESE 3.2 km/h 17.7 km/h 72 % 0.0 mm
17:42 9.7 °C 5.3 °C 1017.2 hPa ESE 3.2 km/h 19.3 km/h 74 % 0.0 mm
17:47 9.5 °C 5.1 °C 1017.2 hPa NE 14.5 km/h 19.3 km/h 74 % 0.0 mm
17:52 9.3 °C 4.9 °C 1017.5 hPa NE 4.8 km/h 19.3 km/h 74 % 0.0 mm
18:02 8.9 °C 4.7 °C 1017.5 hPa NE 1.6 km/h 19.3 km/h 75 % 0.0 mm
18:07 8.7 °C 4.5 °C 1017.5 hPa ENE 4.8 km/h 14.5 km/h 75 % 0.0 mm
18:12 8.6 °C 4.6 °C 1017.5 hPa ENE 3.2 km/h 14.5 km/h 76 % 0.0 mm
18:17 8.4 °C 4.4 °C 1017.5 hPa NE 6.4 km/h 14.5 km/h 76 % 0.0 mm
18:22 8.2 °C 4.2 °C 1017.5 hPa ENE 8.0 km/h 14.5 km/h 76 % 0.0 mm
18:27 8.1 °C 4.3 °C 1017.5 hPa ENE 1.6 km/h 14.5 km/h 77 % 0.0 mm
18:32 7.9 °C 4.1 °C 1017.5 hPa ESE 4.8 km/h 17.7 km/h 77 % 0.0 mm
18:37 7.8 °C 4.0 °C 1017.5 hPa SSE 4.8 km/h 17.7 km/h 77 % 0.0 mm
18:47 7.4 °C 3.8 °C 1017.8 hPa ENE 11.3 km/h 16.1 km/h 78 % 0.0 mm
18:52 7.3 °C 3.7 °C 1017.8 hPa ENE 1.6 km/h 16.1 km/h 78 % 0.0 mm
18:57 7.1 °C 3.7 °C 1017.8 hPa ENE 3.2 km/h 16.1 km/h 79 % 0.0 mm
19:02 6.8 °C 3.6 °C 1017.8 hPa ENE 3.2 km/h 16.1 km/h 80 % 0.0 mm
19:12 6.5 °C 3.3 °C 1017.8 hPa NE 3.2 km/h 14.5 km/h 80 % 0.0 mm
19:17 6.3 °C 3.3 °C 1017.8 hPa ESE 1.6 km/h 14.5 km/h 81 % 0.0 mm
19:22 6.1 °C 3.1 °C 1017.8 hPa ENE 3.2 km/h 14.5 km/h 81 % 0.0 mm
19:32 5.8 °C 3.0 °C 1017.8 hPa ESE 1.6 km/h 17.7 km/h 82 % 0.0 mm
19:37 5.7 °C 3.0 °C 1017.8 hPa ESE 1.6 km/h 17.7 km/h 83 % 0.0 mm
19:42 5.5 °C 2.8 °C 1017.8 hPa ESE 9.7 km/h 11.3 km/h 83 % 0.0 mm
19:47 5.4 °C 2.9 °C 1017.8 hPa East 6.4 km/h 12.9 km/h 84 % 0.0 mm
19:52 5.2 °C 2.7 °C 1018.2 hPa Calm   12.9 km/h 84 % 0.0 mm
19:57 5.1 °C 2.8 °C 1018.2 hPa NE 11.3 km/h 12.9 km/h 85 % 0.0 mm
20:02 5.1 °C 2.8 °C 1018.2 hPa NE 4.8 km/h 14.5 km/h 85 % 0.0 mm
20:07 4.9 °C 2.6 °C 1018.2 hPa ENE 6.4 km/h 14.5 km/h 85 % 0.0 mm
20:12 4.8 °C 2.5 °C 1018.2 hPa ESE 1.6 km/h 14.5 km/h 85 % 0.0 mm
20:17 4.7 °C 2.6 °C 1018.2 hPa SE 1.6 km/h 11.3 km/h 86 % 0.0 mm
20:22 4.6 °C 2.5 °C 1018.2 hPa Calm   11.3 km/h 86 % 0.0 mm
20:27 4.4 °C 2.4 °C 1018.5 hPa Calm   11.3 km/h 87 % 0.0 mm
20:37 4.4 °C 2.4 °C 1018.2 hPa NE 4.8 km/h 16.1 km/h 87 % 0.0 mm
20:42 4.3 °C 2.3 °C 1018.5 hPa ENE 4.8 km/h 16.1 km/h 87 % 0.0 mm
20:47 4.3 °C 2.3 °C 1018.5 hPa SE 1.6 km/h 16.1 km/h 87 % 0.0 mm
20:52 4.3 °C 2.3 °C 1018.5 hPa ENE 1.6 km/h 16.1 km/h 87 % 0.0 mm
20:57 4.2 °C 2.2 °C 1018.5 hPa NE 1.6 km/h 16.1 km/h 87 % 0.0 mm
21:02 3.9 °C 2.1 °C 1018.5 hPa ESE 1.6 km/h 11.3 km/h 88 % 0.0 mm
21:07 3.8 °C 2.0 °C 1018.5 hPa ENE 3.2 km/h 9.7 km/h 88 % 0.0 mm
21:12 3.9 °C 2.1 °C 1018.5 hPa SE 1.6 km/h 12.9 km/h 88 % 0.0 mm
21:17 3.7 °C 1.9 °C 1018.5 hPa NE 6.4 km/h 16.1 km/h 88 % 0.0 mm
21:22 3.7 °C 2.1 °C 1018.5 hPa NE 1.6 km/h 16.1 km/h 89 % 0.0 mm
21:27 3.6 °C 2.0 °C 1018.5 hPa ENE 3.2 km/h 12.9 km/h 89 % 0.0 mm
21:32 3.4 °C 1.8 °C 1018.5 hPa East 1.6 km/h 12.9 km/h 89 % 0.0 mm
21:37 3.4 °C 1.8 °C 1018.5 hPa NE 11.3 km/h 12.9 km/h 89 % 0.0 mm
21:42 3.4 °C 1.8 °C 1018.5 hPa East 1.6 km/h 14.5 km/h 89 % 0.0 mm
21:47 3.4 °C 1.8 °C 1018.5 hPa NE 8.0 km/h 17.7 km/h 89 % 0.0 mm
21:52 3.3 °C 1.7 °C 1018.5 hPa NE 4.8 km/h 17.7 km/h 89 % 0.0 mm
21:57 3.3 °C 1.7 °C 1018.5 hPa ENE 1.6 km/h 17.7 km/h 89 % 0.0 mm
22:02 3.3 °C 1.7 °C 1018.5 hPa Calm   14.5 km/h 89 % 0.0 mm
22:07 3.2 °C 1.7 °C 1018.5 hPa NE 1.6 km/h 14.5 km/h 90 % 0.0 mm
22:12 3.2 °C 1.7 °C 1018.5 hPa NE 1.6 km/h 14.5 km/h 90 % 0.0 mm
22:17 3.2 °C 1.7 °C 1018.5 hPa ENE 3.2 km/h 11.3 km/h 90 % 0.0 mm
22:22 3.2 °C 1.7 °C 1018.5 hPa NE 1.6 km/h 11.3 km/h 90 % 0.0 mm
22:27 3.2 °C 1.7 °C 1018.5 hPa SE 3.2 km/h 11.3 km/h 90 % 0.0 mm
22:32 3.1 °C 1.6 °C 1018.5 hPa ENE 3.2 km/h 12.9 km/h 90 % 0.0 mm
22:37 3.0 °C 1.5 °C 1018.5 hPa NE 1.6 km/h 12.9 km/h 90 % 0.0 mm
22:42 3.1 °C 1.6 °C 1018.5 hPa NE 6.4 km/h 9.7 km/h 90 % 0.0 mm
22:47 2.9 °C 1.4 °C 1018.8 hPa NNE 4.8 km/h 9.7 km/h 90 % 0.0 mm
22:52 2.9 °C 1.4 °C 1018.8 hPa East 3.2 km/h 9.7 km/h 90 % 0.0 mm
22:57 2.9 °C 1.6 °C 1018.8 hPa NNE 6.4 km/h 9.7 km/h 91 % 0.0 mm
23:02 2.8 °C 1.3 °C 1018.8 hPa ENE 6.4 km/h 9.7 km/h 90 % 0.0 mm
23:07 2.7 °C 1.4 °C 1018.5 hPa ENE 1.6 km/h 11.3 km/h 91 % 0.0 mm
23:12 2.7 °C 1.4 °C 1018.5 hPa East 3.2 km/h 11.3 km/h 91 % 0.0 mm
23:22 2.5 °C 1.3 °C 1018.5 hPa NNE 6.4 km/h 12.9 km/h 92 % 0.0 mm
23:32 2.5 °C 1.3 °C 1018.5 hPa ENE 4.8 km/h 12.9 km/h 92 % 0.0 mm
23:37 2.6 °C 1.4 °C 1018.8 hPa NNE 8.0 km/h 12.9 km/h 92 % 0.0 mm
23:42 2.6 °C 1.3 °C 1018.8 hPa East 3.2 km/h 11.3 km/h 91 % 0.0 mm
23:47 2.6 °C 1.3 °C 1018.8 hPa NNE 12.9 km/h 14.5 km/h 91 % 0.0 mm
23:52 2.6 °C 1.3 °C 1018.5 hPa ESE 3.2 km/h 14.5 km/h 91 % 0.0 mm
23:57 2.6 °C 1.3 °C 1018.5 hPa NE 9.7 km/h 14.5 km/h 91 % 0.0 mm
Meteo18
Compliments of Weather Underground - 4 mb

Script developed by  Jim McMurry - jmcmurry@mwt.net Adapted for the template by  Wim van der Kuil - Leuven-Template.eu

You find our weather info also at:

European Weather Network

Weather Underground

Equipment we use:

Weather-station
Davis Vue

Weather-program
Meteohub

Weather-server
Raspberry PI 2 B+

Provider
1 and 1

Davis Vue

Meteohub

Raspberry PI 2 B+

1 and 1